Terminal Aerodrome Forecast
Issued by NWS Memphis, TN

Home | Current Version | Previous Version | Text Only | Print | Product List | Glossary On
Versions: 1 2 3 4 5 6 7 8 9 10 11 12 13 14 15
756
FTUS44 KMEG 230531
TAFJBR
TAF
KJBR 230531Z 2306/2406 VRB03KT P6SM FEW120 BKN250
     FM231900 20005KT P6SM VCTS SCT040CB BKN100=

USA.gov is the U.S. government's official web portal to all federal, state and local government web resources and services.